createdAt,value
2022-12-01T00:00:11.064Z,101462.76
2022-12-01T00:01:11.060Z,101459.15
2022-12-01T00:02:11.137Z,101462.68
2022-12-01T00:03:11.154Z,101460.79
2022-12-01T00:04:11.062Z,101462.91
2022-12-01T00:05:11.068Z,101462.55
2022-12-01T00:06:14.057Z,101465.74
2022-12-01T00:07:11.063Z,101467.25
2022-12-01T00:08:11.071Z,101470.71
2022-12-01T00:09:19.487Z,101468.99
2022-12-01T00:10:15.058Z,101471.45
2022-12-01T00:11:13.059Z,101474.00
2022-12-01T00:12:11.061Z,101476.86
2022-12-01T00:13:11.057Z,101480.65
2022-12-01T00:14:11.062Z,101481.27
2022-12-01T00:15:11.068Z,101481.81
2022-12-01T00:16:15.090Z,101483.52
2022-12-01T00:17:11.056Z,101482.49
2022-12-01T00:18:11.061Z,101486.00
2022-12-01T00:19:11.059Z,101488.04
2022-12-01T00:20:11.056Z,101493.39
2022-12-01T00:21:15.064Z,101495.50
2022-12-01T00:22:11.061Z,101501.07
2022-12-01T00:23:11.058Z,101498.40
2022-12-01T00:24:11.061Z,101504.68
2022-12-01T00:25:11.067Z,101505.52
2022-12-01T00:26:11.059Z,101504.66
2022-12-01T00:27:11.062Z,101504.55
2022-12-01T00:28:11.068Z,101506.18
2022-12-01T00:29:11.060Z,101505.93
2022-12-01T00:30:11.057Z,101509.12
2022-12-01T00:31:11.078Z,101511.38
2022-12-01T00:32:11.152Z,101511.28
2022-12-01T00:33:11.065Z,101512.86
2022-12-01T00:34:19.071Z,101511.60
2022-12-01T00:35:11.064Z,101511.96
2022-12-01T00:36:11.060Z,101510.91
2022-12-01T00:37:11.061Z,101513.73
2022-12-01T00:38:11.062Z,101516.07
2022-12-01T00:39:11.060Z,101511.84
2022-12-01T00:40:11.061Z,101509.41
2022-12-01T00:41:11.063Z,101512.82
2022-12-01T00:42:13.378Z,101509.52
2022-12-01T00:43:11.062Z,101510.23
2022-12-01T00:44:11.072Z,101506.13
2022-12-01T00:45:11.060Z,101507.46
2022-12-01T00:46:11.077Z,101512.68
2022-12-01T00:47:11.074Z,101511.46
2022-12-01T00:48:11.061Z,101508.77
2022-12-01T00:49:13.064Z,101509.64
2022-12-01T00:50:11.070Z,101512.30
2022-12-01T00:51:11.065Z,101512.21
2022-12-01T00:52:11.064Z,101513.06
2022-12-01T00:53:11.068Z,101514.16
2022-12-01T00:54:11.063Z,101515.23
2022-12-01T00:55:11.065Z,101516.78
2022-12-01T00:56:11.069Z,101521.15
2022-12-01T00:57:11.063Z,101521.82
2022-12-01T00:58:11.059Z,101517.84
2022-12-01T00:59:11.065Z,101520.62
2022-12-01T01:00:11.063Z,101521.81
2022-12-01T01:01:11.097Z,101523.25
2022-12-01T01:02:11.152Z,101524.13
2022-12-01T01:03:11.064Z,101525.01
2022-12-01T01:04:11.063Z,101525.82
2022-12-01T01:05:11.065Z,101527.29
2022-12-01T01:06:13.068Z,101525.66
2022-12-01T01:07:11.061Z,101528.43
2022-12-01T01:08:11.069Z,101525.64
2022-12-01T01:09:11.072Z,101526.00
2022-12-01T01:10:11.061Z,101525.19
2022-12-01T01:11:11.065Z,101522.34
2022-12-01T01:12:11.073Z,101525.09
2022-12-01T01:13:11.063Z,101520.46
2022-12-01T01:14:11.066Z,101518.30
2022-12-01T01:15:11.072Z,101517.37
2022-12-01T01:16:18.102Z,101515.74
2022-12-01T01:17:11.062Z,101512.21
2022-12-01T01:18:11.066Z,101507.08
2022-12-01T01:19:11.066Z,101502.12
2022-12-01T01:20:11.059Z,101498.61
2022-12-01T01:21:12.065Z,101499.34
2022-12-01T01:22:11.064Z,101499.84
2022-12-01T01:23:11.069Z,101497.76
2022-12-01T01:24:11.064Z,101497.23
2022-12-01T01:25:11.065Z,101496.57
2022-12-01T01:26:21.064Z,101494.91
2022-12-01T01:27:11.061Z,101492.71
2022-12-01T01:28:11.072Z,101492.05
2022-12-01T01:29:11.066Z,101486.69
2022-12-01T01:30:11.062Z,101481.82
2022-12-01T01:31:12.156Z,101481.84
2022-12-01T01:32:11.065Z,101479.84
2022-12-01T01:33:11.063Z,101478.95
2022-12-01T01:34:11.069Z,101481.23
2022-12-01T01:35:11.077Z,101477.89
2022-12-01T01:36:11.066Z,101479.94
2022-12-01T01:37:11.064Z,101476.61
2022-12-01T01:38:11.068Z,101479.13
2022-12-01T01:39:11.066Z,101476.45
2022-12-01T01:40:11.064Z,101473.66
2022-12-01T01:41:11.066Z,101473.79
2022-12-01T01:42:13.065Z,101474.41
2022-12-01T01:43:15.066Z,101473.00
2022-12-01T01:44:19.067Z,101469.48
2022-12-01T01:45:19.063Z,101469.85
2022-12-01T01:46:12.088Z,101467.65
2022-12-01T01:47:11.064Z,101465.84
2022-12-01T01:48:12.064Z,101465.48
2022-12-01T01:49:12.064Z,101467.18
2022-12-01T01:50:14.073Z,101467.14
2022-12-01T01:51:11.068Z,101466.23
2022-12-01T01:52:11.067Z,101466.64
2022-12-01T01:53:12.067Z,101469.08
2022-12-01T01:54:14.066Z,101469.84
2022-12-01T01:55:11.065Z,101468.82
2022-12-01T01:56:11.067Z,101470.68
2022-12-01T01:57:11.074Z,101468.80
2022-12-01T01:58:11.067Z,101468.39
2022-12-01T01:59:11.068Z,101469.48
2022-12-01T02:00:12.076Z,101469.20
2022-12-01T02:01:11.112Z,101472.07
2022-12-01T02:02:11.154Z,101470.91
2022-12-01T02:03:12.066Z,101472.73
2022-12-01T02:04:11.067Z,101466.92
2022-12-01T02:05:18.064Z,101464.87
2022-12-01T02:06:11.067Z,101463.14
2022-12-01T02:07:11.073Z,101462.43
2022-12-01T02:08:15.066Z,101465.59
2022-12-01T02:09:12.070Z,101464.27
2022-12-01T02:10:12.076Z,101466.01
2022-12-01T02:11:19.068Z,101469.03
2022-12-01T02:12:19.062Z,101469.88
2022-12-01T02:13:19.066Z,101470.57
2022-12-01T02:14:20.076Z,101472.18
2022-12-01T02:15:19.067Z,101469.53
2022-12-01T02:16:14.205Z,101469.92
2022-12-01T02:17:21.066Z,101476.45
2022-12-01T02:18:19.070Z,101474.91
2022-12-01T02:19:19.067Z,101469.56
2022-12-01T02:20:19.067Z,101475.16
2022-12-01T02:21:19.066Z,101474.11
2022-12-01T02:22:21.068Z,101478.75
2022-12-01T02:23:19.075Z,101474.59
2022-12-01T02:24:19.068Z,101474.61
2022-12-01T02:25:21.067Z,101475.91
2022-12-01T02:26:21.063Z,101479.46
2022-12-01T02:27:19.068Z,101481.14
2022-12-01T02:28:21.078Z,101480.93
2022-12-01T02:29:21.079Z,101478.26
2022-12-01T02:30:16.071Z,101479.95
2022-12-01T02:31:16.166Z,101478.04
2022-12-01T02:32:21.068Z,101478.45
2022-12-01T02:33:19.083Z,101481.05
2022-12-01T02:34:19.069Z,101487.64
2022-12-01T02:35:19.068Z,101487.28
2022-12-01T02:36:17.064Z,101488.90
2022-12-01T02:37:19.067Z,101490.49
2022-12-01T02:38:18.077Z,101491.25
2022-12-01T02:39:19.069Z,101489.75
2022-12-01T02:40:21.070Z,101491.91
2022-12-01T02:41:20.069Z,101490.00
2022-12-01T02:42:20.067Z,101490.49
2022-12-01T02:43:17.070Z,101488.67
2022-12-01T02:44:18.069Z,101495.76
2022-12-01T02:45:16.067Z,101496.90
2022-12-01T02:46:18.128Z,101499.41
2022-12-01T02:47:15.071Z,101500.38
2022-12-01T02:48:14.058Z,101509.44
2022-12-01T02:49:17.056Z,101511.86
2022-12-01T02:50:11.059Z,101513.50
2022-12-01T02:51:19.069Z,101511.55
2022-12-01T02:52:13.064Z,101515.58
2022-12-01T02:53:11.056Z,101515.19
2022-12-01T02:54:11.057Z,101516.25
2022-12-01T02:55:11.057Z,101515.17
2022-12-01T02:56:12.061Z,101508.88
2022-12-01T02:57:13.056Z,101509.55
2022-12-01T02:58:15.058Z,101505.55
2022-12-01T02:59:14.071Z,101500.82
2022-12-01T03:00:11.060Z,101502.87
2022-12-01T03:01:19.095Z,101501.90
2022-12-01T03:02:21.107Z,101503.80
2022-12-01T03:03:21.061Z,101503.54
2022-12-01T03:04:19.063Z,101506.71
2022-12-01T03:05:21.068Z,101506.62
2022-12-01T03:06:19.067Z,101505.81
2022-12-01T03:07:23.108Z,101506.05
2022-12-01T03:08:19.057Z,101503.48
2022-12-01T03:09:23.055Z,101500.54
2022-12-01T03:10:19.060Z,101500.98
2022-12-01T03:11:11.059Z,101503.36
2022-12-01T03:12:19.058Z,101506.19
2022-12-01T03:13:19.058Z,101505.05
2022-12-01T03:14:18.061Z,101504.59
2022-12-01T03:15:19.060Z,101504.24
2022-12-01T03:16:19.120Z,101504.35
2022-12-01T03:17:15.057Z,101499.85
2022-12-01T03:18:21.062Z,101499.54
2022-12-01T03:19:19.058Z,101497.29
2022-12-01T03:20:16.065Z,101495.39
2022-12-01T03:21:18.074Z,101496.07
2022-12-01T03:22:14.058Z,101498.02
2022-12-01T03:23:14.058Z,101497.11
2022-12-01T03:24:13.067Z,101495.75
2022-12-01T03:25:11.058Z,101494.93
2022-12-01T03:26:14.060Z,101493.16
2022-12-01T03:27:11.062Z,101493.45
2022-12-01T03:28:22.256Z,101491.44
2022-12-01T03:29:19.075Z,101496.62
2022-12-01T03:30:14.065Z,101498.88
2022-12-01T03:31:15.134Z,101495.09
2022-12-01T03:32:18.059Z,101496.32
2022-12-01T03:33:17.063Z,101497.09
2022-12-01T03:34:14.094Z,101500.75
2022-12-01T03:35:15.062Z,101502.96
2022-12-01T03:36:16.063Z,101499.80
2022-12-01T03:37:16.061Z,101501.95
2022-12-01T03:38:19.076Z,101499.76
2022-12-01T03:39:15.061Z,101497.84
2022-12-01T03:40:17.059Z,101495.27
2022-12-01T03:41:16.061Z,101491.64
2022-12-01T03:42:16.080Z,101489.95
2022-12-01T03:43:13.062Z,101489.87
2022-12-01T03:44:20.060Z,101485.71
2022-12-01T03:45:15.063Z,101487.04
2022-12-01T03:46:18.177Z,101488.09
2022-12-01T03:47:14.063Z,101488.36
2022-12-01T03:48:11.059Z,101488.91
2022-12-01T03:49:12.060Z,101489.48
2022-12-01T03:50:11.068Z,101491.83
2022-12-01T03:51:19.060Z,101487.38
2022-12-01T03:52:19.065Z,101490.77
2022-12-01T03:53:19.064Z,101488.93
2022-12-01T03:54:19.073Z,101485.14
2022-12-01T03:55:19.063Z,101484.32
2022-12-01T03:56:11.059Z,101483.84
2022-12-01T03:57:13.062Z,101483.02
2022-12-01T03:58:19.065Z,101482.88
2022-12-01T03:59:11.060Z,101485.82
2022-12-01T04:00:11.063Z,101485.89
2022-12-01T04:01:11.094Z,101487.96
2022-12-01T04:02:11.150Z,101492.44
2022-12-01T04:03:15.103Z,101490.61
2022-12-01T04:04:11.064Z,101490.07
2022-12-01T04:05:11.063Z,101489.05
2022-12-01T04:06:11.058Z,101483.54
2022-12-01T04:07:11.064Z,101486.77
2022-12-01T04:08:11.087Z,101488.16
2022-12-01T04:09:11.058Z,101491.77
2022-12-01T04:10:11.066Z,101488.00
2022-12-01T04:11:15.065Z,101495.16
2022-12-01T04:12:15.067Z,101496.16
2022-12-01T04:13:11.064Z,101499.36
2022-12-01T04:14:11.069Z,101499.74
2022-12-01T04:15:12.060Z,101498.68
2022-12-01T04:16:11.087Z,101503.01
2022-12-01T04:17:11.071Z,101504.54
2022-12-01T04:18:11.063Z,101504.42
2022-12-01T04:19:11.060Z,101506.75
2022-12-01T04:20:13.072Z,101506.38
2022-12-01T04:21:11.064Z,101508.70
2022-12-01T04:22:11.064Z,101512.18
2022-12-01T04:23:11.063Z,101512.29
2022-12-01T04:24:11.064Z,101510.14
2022-12-01T04:25:11.062Z,101510.63
2022-12-01T04:26:15.579Z,101514.44
2022-12-01T04:27:11.071Z,101522.08
2022-12-01T04:28:11.063Z,101523.80
2022-12-01T04:29:11.069Z,101522.46
2022-12-01T04:30:11.094Z,101523.67
2022-12-01T04:31:11.107Z,101523.44
2022-12-01T04:32:11.061Z,101516.74
2022-12-01T04:33:11.067Z,101518.86
2022-12-01T04:34:11.078Z,101516.69
2022-12-01T04:35:11.063Z,101515.47
2022-12-01T04:36:11.063Z,101518.04
2022-12-01T04:37:11.065Z,101517.95
2022-12-01T04:38:11.066Z,101524.01
2022-12-01T04:39:11.065Z,101525.07
2022-12-01T04:40:11.066Z,101525.16
2022-12-01T04:41:13.068Z,101527.17
2022-12-01T04:42:11.071Z,101526.21
2022-12-01T04:43:11.068Z,101523.60
2022-12-01T04:44:11.063Z,101527.95
2022-12-01T04:45:11.063Z,101530.09
2022-12-01T04:46:11.107Z,101528.82
2022-12-01T04:47:11.064Z,101527.57
2022-12-01T04:48:11.068Z,101529.65
2022-12-01T04:49:11.072Z,101528.29
2022-12-01T04:50:11.067Z,101523.80
2022-12-01T04:51:11.069Z,101526.98
2022-12-01T04:52:11.074Z,101525.07
2022-12-01T04:53:11.067Z,101524.16
2022-12-01T04:54:11.067Z,101528.66
2022-12-01T04:55:11.066Z,101526.18
2022-12-01T04:56:11.068Z,101522.25
2022-12-01T04:57:11.064Z,101518.59
2022-12-01T04:58:11.065Z,101515.62
2022-12-01T04:59:11.068Z,101517.91
2022-12-01T05:00:15.065Z,101517.56
2022-12-01T05:01:11.196Z,101517.02
2022-12-01T05:02:11.124Z,101513.92
2022-12-01T05:03:15.061Z,101517.97
2022-12-01T05:04:12.067Z,101514.85
2022-12-01T05:05:11.066Z,101514.96
2022-12-01T05:06:13.067Z,101508.80
2022-12-01T05:07:11.067Z,101510.10
2022-12-01T05:08:11.075Z,101508.96
2022-12-01T05:09:17.171Z,101505.19
2022-12-01T05:10:11.065Z,101504.27
2022-12-01T05:11:13.070Z,101498.31
2022-12-01T05:12:11.074Z,101494.59
2022-12-01T05:13:11.066Z,101497.91
2022-12-01T05:14:11.065Z,101492.23
2022-12-01T05:15:11.069Z,101491.49
2022-12-01T05:16:11.148Z,101491.05
2022-12-01T05:17:11.068Z,101487.19
2022-12-01T05:18:11.141Z,101489.34
2022-12-01T05:19:15.068Z,101489.84
2022-12-01T05:20:19.066Z,101486.77
2022-12-01T05:21:11.068Z,101486.20
2022-12-01T05:22:11.068Z,101487.72
2022-12-01T05:23:16.499Z,101486.59
2022-12-01T05:24:13.070Z,101489.21
2022-12-01T05:25:11.073Z,101491.14
2022-12-01T05:26:11.077Z,101490.48
2022-12-01T05:27:11.068Z,101493.66
2022-12-01T05:28:11.065Z,101497.19
2022-12-01T05:29:11.076Z,101497.65
2022-12-01T05:30:11.068Z,101493.13
2022-12-01T05:31:11.128Z,101496.70
2022-12-01T05:32:11.067Z,101493.49
2022-12-01T05:33:11.069Z,101494.37
2022-12-01T05:34:11.067Z,101492.24
2022-12-01T05:35:11.068Z,101493.82
2022-12-01T05:36:11.076Z,101494.05
2022-12-01T05:37:11.066Z,101489.30
2022-12-01T05:38:11.080Z,101492.64
2022-12-01T05:39:11.077Z,101494.47
2022-12-01T05:40:11.071Z,101492.98
2022-12-01T05:41:11.065Z,101493.40
2022-12-01T05:42:11.078Z,101491.52
2022-12-01T05:43:11.073Z,101495.20
2022-12-01T05:44:11.068Z,101492.30
2022-12-01T05:45:11.084Z,101497.79
2022-12-01T05:46:11.118Z,101497.34
2022-12-01T05:47:11.066Z,101498.39
2022-12-01T05:48:11.058Z,101500.54
2022-12-01T05:49:11.057Z,101501.62
2022-12-01T05:50:11.055Z,101498.15
2022-12-01T05:51:14.056Z,101500.31
2022-12-01T05:52:11.060Z,101498.38
2022-12-01T05:53:12.056Z,101500.09
2022-12-01T05:54:11.057Z,101496.25
2022-12-01T05:55:11.065Z,101499.23
2022-12-01T05:56:11.056Z,101501.24
2022-12-01T05:57:11.059Z,101509.79
2022-12-01T05:58:11.066Z,101509.84
2022-12-01T05:59:11.056Z,101511.37
2022-12-01T06:00:11.057Z,101511.21
2022-12-01T06:01:11.076Z,101512.69
2022-12-01T06:02:11.105Z,101515.65
2022-12-01T06:03:11.058Z,101517.37
2022-12-01T06:04:11.100Z,101519.66
2022-12-01T06:05:11.062Z,101516.88
2022-12-01T06:06:11.057Z,101515.62
2022-12-01T06:07:11.065Z,101516.79
2022-12-01T06:08:11.056Z,101513.79
2022-12-01T06:09:11.060Z,101511.52
2022-12-01T06:10:11.065Z,101509.87
2022-12-01T06:11:11.060Z,101511.48
2022-12-01T06:12:11.061Z,101514.67
2022-12-01T06:13:11.066Z,101511.83
2022-12-01T06:14:11.056Z,101509.51
2022-12-01T06:15:11.054Z,101514.86
2022-12-01T06:16:11.060Z,101512.85
2022-12-01T06:17:11.060Z,101512.42
2022-12-01T06:18:11.056Z,101515.11
2022-12-01T06:19:11.060Z,101518.32
2022-12-01T06:20:11.061Z,101515.82
2022-12-01T06:21:11.057Z,101516.52
2022-12-01T06:22:11.059Z,101517.27
2022-12-01T06:23:11.059Z,101518.03
2022-12-01T06:24:11.058Z,101518.53
2022-12-01T06:25:11.060Z,101523.42
2022-12-01T06:26:11.062Z,101526.73
2022-12-01T06:27:11.057Z,101525.27
2022-12-01T06:28:11.058Z,101527.45
2022-12-01T06:29:11.060Z,101528.93
2022-12-01T06:30:11.058Z,101528.39
2022-12-01T06:31:11.061Z,101530.83
2022-12-01T06:32:11.088Z,101528.32
2022-12-01T06:33:11.059Z,101532.05
2022-12-01T06:34:11.060Z,101532.95
2022-12-01T06:35:11.066Z,101535.77
2022-12-01T06:36:11.059Z,101535.42
2022-12-01T06:37:11.062Z,101535.35
2022-12-01T06:38:11.078Z,101532.69
2022-12-01T06:39:11.058Z,101531.25
2022-12-01T06:40:11.066Z,101530.33
2022-12-01T06:41:11.067Z,101528.32
2022-12-01T06:42:11.058Z,101532.38
2022-12-01T06:43:11.064Z,101531.93
2022-12-01T06:44:11.070Z,101533.42
2022-12-01T06:45:11.060Z,101534.66
2022-12-01T06:46:11.074Z,101536.25
2022-12-01T06:47:11.068Z,101539.69
2022-12-01T06:48:11.060Z,101535.55
2022-12-01T06:49:13.066Z,101537.77
2022-12-01T06:50:12.069Z,101539.20
2022-12-01T06:51:11.199Z,101540.59
2022-12-01T06:52:11.059Z,101539.59
2022-12-01T06:53:11.065Z,101542.72
2022-12-01T06:54:11.063Z,101543.61
2022-12-01T06:55:11.067Z,101546.01
2022-12-01T06:56:11.065Z,101547.99
2022-12-01T06:57:11.063Z,101549.00
2022-12-01T06:58:11.059Z,101548.77
2022-12-01T06:59:11.061Z,101548.77
2022-12-01T07:00:11.062Z,101550.66
2022-12-01T07:01:11.104Z,101548.58
2022-12-01T07:02:12.183Z,101551.75
2022-12-01T07:03:11.063Z,101548.05
2022-12-01T07:04:11.063Z,101553.83
2022-12-01T07:05:11.065Z,101551.47
2022-12-01T07:06:11.064Z,101554.51
2022-12-01T07:07:11.061Z,101557.97
2022-12-01T07:08:11.078Z,101562.07
2022-12-01T07:09:11.069Z,101560.57
2022-12-01T07:10:11.060Z,101560.65
2022-12-01T07:11:11.062Z,101563.14
2022-12-01T07:12:11.070Z,101563.55
2022-12-01T07:13:11.061Z,101565.73
2022-12-01T07:14:20.074Z,101564.75
2022-12-01T07:15:11.064Z,101565.61
2022-12-01T07:16:11.123Z,101565.87
2022-12-01T07:17:11.118Z,101562.94
2022-12-01T07:18:11.063Z,101568.89
2022-12-01T07:19:11.065Z,101570.39
2022-12-01T07:20:11.064Z,101566.52
2022-12-01T07:21:12.063Z,101568.16
2022-12-01T07:22:11.067Z,101570.66
2022-12-01T07:23:11.062Z,101570.18
2022-12-01T07:24:11.063Z,101575.50
2022-12-01T07:25:11.070Z,101574.41
2022-12-01T07:26:13.062Z,101574.34
2022-12-01T07:27:11.067Z,101576.50
2022-12-01T07:28:11.073Z,101575.58
2022-12-01T07:29:11.061Z,101575.56
2022-12-01T07:30:11.065Z,101576.77
2022-12-01T07:31:14.126Z,101579.24
2022-12-01T07:32:11.064Z,101579.33
2022-12-01T07:33:11.060Z,101579.10
2022-12-01T07:34:12.076Z,101581.61
2022-12-01T07:35:11.065Z,101579.49
2022-12-01T07:36:11.061Z,101580.76
2022-12-01T07:37:11.080Z,101583.31
2022-12-01T07:38:11.065Z,101582.64
2022-12-01T07:39:11.064Z,101587.75
2022-12-01T07:40:11.065Z,101584.07
2022-12-01T07:41:11.065Z,101586.54
2022-12-01T07:42:11.062Z,101583.20
2022-12-01T07:43:11.064Z,101585.85
2022-12-01T07:44:11.066Z,101584.34
2022-12-01T07:45:11.063Z,101584.91
2022-12-01T07:46:22.576Z,101585.11
2022-12-01T07:47:13.401Z,101586.47
2022-12-01T07:48:11.066Z,101587.33
2022-12-01T07:49:11.071Z,101588.18
2022-12-01T07:50:11.064Z,101583.92
2022-12-01T07:51:11.072Z,101586.59
2022-12-01T07:52:11.065Z,101582.59
2022-12-01T07:53:11.068Z,101590.76
2022-12-01T07:54:11.070Z,101591.49
2022-12-01T07:55:11.063Z,101596.73
2022-12-01T07:56:11.065Z,101592.57
2022-12-01T07:57:11.068Z,101592.71
2022-12-01T07:58:11.065Z,101589.78
2022-12-01T07:59:11.070Z,101596.91
2022-12-01T08:00:11.080Z,101598.34
2022-12-01T08:01:11.148Z,101601.28
2022-12-01T08:02:11.223Z,101602.76
2022-12-01T08:03:11.168Z,101603.56
2022-12-01T08:04:11.074Z,101604.12
2022-12-01T08:05:11.062Z,101600.79
2022-12-01T08:06:11.070Z,101602.73
2022-12-01T08:07:11.068Z,101602.72
2022-12-01T08:08:11.152Z,101601.82
2022-12-01T08:09:11.069Z,101600.46
2022-12-01T08:10:11.067Z,101599.19
2022-12-01T08:11:14.063Z,101603.91
2022-12-01T08:12:11.065Z,101603.18
2022-12-01T08:13:16.981Z,101604.99
2022-12-01T08:14:13.050Z,101604.10
2022-12-01T08:15:11.079Z,101604.06
2022-12-01T08:16:11.078Z,101602.96
2022-12-01T08:17:11.068Z,101601.34
2022-12-01T08:18:11.065Z,101601.21
2022-12-01T08:19:11.075Z,101605.28
2022-12-01T08:20:11.067Z,101606.47
2022-12-01T08:21:11.088Z,101607.64
2022-12-01T08:22:11.087Z,101608.99
2022-12-01T08:23:11.078Z,101610.71
2022-12-01T08:24:12.081Z,101606.71
2022-12-01T08:25:11.074Z,101606.85
2022-12-01T08:26:12.098Z,101608.86
2022-12-01T08:27:11.066Z,101610.16
2022-12-01T08:28:11.076Z,101617.35
2022-12-01T08:29:14.600Z,101621.37
2022-12-01T08:30:13.051Z,101622.22
2022-12-01T08:31:18.144Z,101621.29
2022-12-01T08:32:11.077Z,101623.80
2022-12-01T08:33:11.066Z,101621.67
2022-12-01T08:34:11.068Z,101629.88
2022-12-01T08:35:11.084Z,101624.38
2022-12-01T08:36:11.066Z,101623.46
2022-12-01T08:37:11.072Z,101624.14
2022-12-01T08:38:11.077Z,101621.65
2022-12-01T08:39:11.082Z,101619.70
2022-12-01T08:40:11.081Z,101619.69
2022-12-01T08:41:11.071Z,101620.24
2022-12-01T08:42:11.073Z,101622.30
2022-12-01T08:43:28.318Z,101626.94
2022-12-01T08:44:13.075Z,101625.54
2022-12-01T08:45:11.079Z,101626.37
2022-12-01T08:46:13.105Z,101624.21
2022-12-01T08:47:14.334Z,101622.65
2022-12-01T08:48:13.038Z,101622.86
2022-12-01T08:49:11.060Z,101622.86
2022-12-01T08:50:11.053Z,101628.36
2022-12-01T08:51:17.068Z,101624.80
2022-12-01T08:52:11.060Z,101627.85
2022-12-01T08:53:11.058Z,101631.30
2022-12-01T08:54:12.057Z,101634.31
2022-12-01T08:55:11.059Z,101629.22
2022-12-01T08:56:16.059Z,101631.36
2022-12-01T08:57:11.063Z,101632.38
2022-12-01T08:58:11.066Z,101635.09
2022-12-01T08:59:11.064Z,101636.12
2022-12-01T09:00:11.057Z,101636.43
2022-12-01T09:01:12.060Z,101639.64
2022-12-01T09:02:15.133Z,101643.13
2022-12-01T09:03:11.130Z,101637.53
2022-12-01T09:04:11.056Z,101644.12
2022-12-01T09:05:11.059Z,101640.52
2022-12-01T09:06:16.057Z,101640.48
2022-12-01T09:07:11.058Z,101639.47
2022-12-01T09:08:15.094Z,101640.73
2022-12-01T09:09:11.058Z,101638.89
2022-12-01T09:10:11.060Z,101639.11
2022-12-01T09:11:14.062Z,101643.37
2022-12-01T09:12:11.058Z,101633.05
2022-12-01T09:13:11.060Z,101638.02
2022-12-01T09:14:11.059Z,101637.37
2022-12-01T09:15:11.059Z,101634.09
2022-12-01T09:16:14.166Z,101634.07
2022-12-01T09:17:11.057Z,101629.57
2022-12-01T09:18:11.062Z,101633.95
2022-12-01T09:19:13.167Z,101630.37
2022-12-01T09:20:11.064Z,101627.81
2022-12-01T09:21:15.069Z,101632.80
2022-12-01T09:22:11.059Z,101627.66
2022-12-01T09:23:11.056Z,101629.71
2022-12-01T09:24:12.062Z,101626.44
2022-12-01T09:25:12.060Z,101629.41
2022-12-01T09:26:13.748Z,101629.90
2022-12-01T09:27:11.062Z,101628.65
2022-12-01T09:28:11.059Z,101630.14
2022-12-01T09:29:11.059Z,101629.34
2022-12-01T09:30:11.059Z,101630.89
2022-12-01T09:31:11.144Z,101630.32
2022-12-01T09:32:11.059Z,101629.01
2022-12-01T09:33:11.058Z,101628.12
2022-12-01T09:34:12.062Z,101626.80
2022-12-01T09:35:11.058Z,101625.79
2022-12-01T09:36:12.062Z,101624.01
2022-12-01T09:37:11.061Z,101619.95
2022-12-01T09:38:11.059Z,101620.12
2022-12-01T09:39:13.060Z,101619.00
2022-12-01T09:40:13.062Z,101617.94
2022-12-01T09:41:22.060Z,101616.20
2022-12-01T09:42:15.058Z,101617.52
2022-12-01T09:43:18.064Z,101613.51
2022-12-01T09:44:22.060Z,101614.59
2022-12-01T09:45:17.060Z,101613.27
2022-12-01T09:46:15.106Z,101616.85
2022-12-01T09:47:20.067Z,101610.21
2022-12-01T09:48:19.069Z,101618.24
2022-12-01T09:49:17.064Z,101617.47
2022-12-01T09:50:19.061Z,101619.33
2022-12-01T09:51:18.074Z,101619.11
2022-12-01T09:52:14.060Z,101618.46
2022-12-01T09:53:13.076Z,101621.59
2022-12-01T09:54:13.062Z,101617.80
2022-12-01T09:55:17.063Z,101622.64
2022-12-01T09:56:19.069Z,101622.18
2022-12-01T09:57:16.062Z,101624.58
2022-12-01T09:58:16.059Z,101622.86
2022-12-01T09:59:18.067Z,101619.51
2022-12-01T10:00:18.063Z,101619.98
2022-12-01T10:01:17.160Z,101621.46
2022-12-01T10:02:19.131Z,101616.94
2022-12-01T10:03:19.062Z,101622.69
2022-12-01T10:04:18.103Z,101618.30
2022-12-01T10:05:16.141Z,101619.36
2022-12-01T10:06:27.373Z,101620.87
2022-12-01T10:07:21.126Z,101617.92
2022-12-01T10:08:15.059Z,101619.01
2022-12-01T10:09:22.067Z,101622.94
2022-12-01T10:10:16.071Z,101617.09
2022-12-01T10:11:25.064Z,101619.41
2022-12-01T10:12:15.064Z,101619.90
2022-12-01T10:13:19.058Z,101619.52
2022-12-01T10:14:20.113Z,101618.80
2022-12-01T10:15:19.065Z,101617.02
2022-12-01T10:16:18.112Z,101617.18
2022-12-01T10:17:22.063Z,101615.86
2022-12-01T10:18:22.063Z,101615.83
2022-12-01T10:19:19.061Z,101612.83
2022-12-01T10:20:19.091Z,101611.87
2022-12-01T10:21:22.065Z,101612.38
2022-12-01T10:22:19.076Z,101611.60
2022-12-01T10:23:19.065Z,101607.33
2022-12-01T10:24:19.062Z,101604.83
2022-12-01T10:25:19.064Z,101606.61
2022-12-01T10:26:19.072Z,101606.12
2022-12-01T10:27:19.065Z,101603.32
2022-12-01T10:28:19.062Z,101600.12
2022-12-01T10:29:12.063Z,101598.49
2022-12-01T10:30:16.074Z,101599.16
2022-12-01T10:31:18.126Z,101595.92
2022-12-01T10:32:18.062Z,101602.33
2022-12-01T10:33:19.060Z,101602.10
2022-12-01T10:34:15.064Z,101600.01
2022-12-01T10:35:15.070Z,101598.23
2022-12-01T10:36:11.064Z,101595.57
2022-12-01T10:37:19.122Z,101594.61
2022-12-01T10:38:19.067Z,101591.76
2022-12-01T10:39:19.064Z,101590.49
2022-12-01T10:40:16.065Z,101592.96
2022-12-01T10:41:14.064Z,101589.68
2022-12-01T10:42:21.068Z,101585.57
2022-12-01T10:43:11.074Z,101589.93
2022-12-01T10:44:11.067Z,101589.60
2022-12-01T10:45:19.065Z,101586.38
2022-12-01T10:46:19.137Z,101590.56
2022-12-01T10:47:19.065Z,101588.37
2022-12-01T10:48:19.068Z,101590.08
2022-12-01T10:49:11.063Z,101588.98
2022-12-01T10:50:15.073Z,101587.16
2022-12-01T10:51:15.068Z,101590.06
2022-12-01T10:52:19.067Z,101591.37
2022-12-01T10:53:19.069Z,101592.80
2022-12-01T10:54:11.066Z,101593.12
2022-12-01T10:55:19.066Z,101589.34
2022-12-01T10:56:18.066Z,101591.47
2022-12-01T10:57:15.064Z,101588.59
2022-12-01T10:58:15.066Z,101589.12
2022-12-01T10:59:19.068Z,101588.42
2022-12-01T11:00:30.155Z,101585.42
2022-12-01T11:01:24.244Z,101586.54
2022-12-01T11:02:16.221Z,101583.64
2022-12-01T11:03:21.694Z,101579.21
2022-12-01T11:04:19.067Z,101581.15
2022-12-01T11:05:19.067Z,101579.18
2022-12-01T11:06:11.064Z,101581.88
2022-12-01T11:07:19.068Z,101581.62
2022-12-01T11:08:19.070Z,101577.74
2022-12-01T11:09:26.147Z,101581.85
2022-12-01T11:10:19.067Z,101581.27
2022-12-01T11:11:19.068Z,101580.26
2022-12-01T11:12:16.073Z,101582.93
2022-12-01T11:13:19.069Z,101581.73
2022-12-01T11:14:18.071Z,101579.91
2022-12-01T11:15:18.079Z,101578.23
2022-12-01T11:16:19.107Z,101579.55
2022-12-01T11:17:19.069Z,101579.28
2022-12-01T11:18:19.066Z,101579.75
2022-12-01T11:19:23.496Z,101578.11
2022-12-01T11:20:21.908Z,101578.11
2022-12-01T11:21:15.079Z,101580.29
2022-12-01T11:22:19.074Z,101578.73
2022-12-01T11:23:19.067Z,101573.14
2022-12-01T11:24:19.070Z,101573.87